createdAt,value
2023-09-05T00:00:27.458Z,68856.50
2023-09-05T00:02:54.728Z,68857.84
2023-09-05T00:05:21.928Z,68862.38
2023-09-05T00:07:49.527Z,68870.16
2023-09-05T00:10:16.739Z,68882.31
2023-09-05T00:12:45.293Z,68881.94
2023-09-05T00:15:14.349Z,68868.84
2023-09-05T00:17:45.382Z,68843.59
2023-09-05T00:20:16.730Z,68844.56
2023-09-05T00:22:44.458Z,68846.06
2023-09-05T00:25:13.121Z,68838.13
2023-09-05T00:27:40.604Z,68829.94
2023-09-05T00:30:09.194Z,68833.75
2023-09-05T00:32:38.937Z,68834.31
2023-09-05T00:35:06.704Z,68840.78
2023-09-05T00:37:33.810Z,68837.16
2023-09-05T00:40:02.000Z,68840.38
2023-09-05T00:42:29.585Z,68831.28
2023-09-05T00:44:56.867Z,68828.28
2023-09-05T00:47:30.240Z,68815.56
2023-09-05T00:49:59.363Z,68817.06
2023-09-05T00:52:27.333Z,68811.41
2023-09-05T00:54:55.789Z,68810.44
2023-09-05T00:57:25.319Z,68810.44
2023-09-05T00:59:52.814Z,68809.69
2023-09-05T01:02:20.039Z,68807.03
2023-09-05T01:04:47.287Z,68816.88
2023-09-05T01:07:22.731Z,68824.06
2023-09-05T01:10:06.298Z,68817.44
2023-09-05T01:12:33.633Z,68809.31
2023-09-05T01:15:00.748Z,68804.00
2023-09-05T01:17:27.919Z,68797.34
2023-09-05T01:19:57.480Z,68795.25
2023-09-05T01:22:44.933Z,68804.75
2023-09-05T01:25:13.793Z,68797.72
2023-09-05T01:27:41.267Z,68791.47
2023-09-05T01:30:10.496Z,68784.81
2023-09-05T01:32:39.036Z,68771.56
2023-09-05T01:35:06.627Z,68768.34
2023-09-05T01:37:34.038Z,68764.94
2023-09-05T01:40:01.275Z,68743.25
2023-09-05T01:42:29.480Z,68768.34
2023-09-05T01:44:57.396Z,68761.88
2023-09-05T01:47:24.505Z,68768.16
2023-09-05T01:49:51.575Z,68762.47
2023-09-05T01:52:18.634Z,68763.41
2023-09-05T01:54:45.798Z,68776.09
2023-09-05T01:57:12.884Z,68783.88
2023-09-05T01:59:40.002Z,68794.31
2023-09-05T02:02:07.159Z,68812.72
2023-09-05T02:04:34.339Z,68812.53
2023-09-05T02:07:01.544Z,68804.19
2023-09-05T02:09:28.656Z,68817.25
2023-09-05T02:11:55.745Z,68811.00
2023-09-05T02:14:23.163Z,68820.09
2023-09-05T02:16:50.377Z,68809.88
2023-09-05T02:19:17.537Z,68814.22
2023-09-05T02:21:44.675Z,68804.00
2023-09-05T02:24:11.990Z,68798.69
2023-09-05T02:26:39.120Z,68804.41
2023-09-05T02:29:06.950Z,68806.06
2023-09-05T02:31:34.020Z,68806.44
2023-09-05T02:34:01.165Z,68795.84
2023-09-05T02:36:32.001Z,68784.81
2023-09-05T02:38:59.344Z,68784.81
2023-09-05T02:41:26.410Z,68784.06
2023-09-05T02:43:53.528Z,68782.38
2023-09-05T02:46:21.764Z,68784.81
2023-09-05T02:48:50.285Z,68769.28
2023-09-05T02:51:17.376Z,68774.41
2023-09-05T02:53:44.519Z,68769.47
2023-09-05T02:56:11.650Z,68768.50
2023-09-05T02:58:38.780Z,68768.72
2023-09-05T03:01:08.494Z,68765.50
2023-09-05T03:03:35.785Z,68771.75
2023-09-05T03:06:14.883Z,68775.94
2023-09-05T03:08:46.210Z,68763.78
2023-09-05T03:11:18.765Z,68758.09
2023-09-05T03:13:47.222Z,68766.81
2023-09-05T03:16:15.666Z,68779.72
2023-09-05T03:18:48.158Z,68776.69
2023-09-05T03:21:15.520Z,68756.97
2023-09-05T03:23:42.713Z,68747.69
2023-09-05T03:26:10.288Z,68735.75
2023-09-05T03:28:43.053Z,68720.41
2023-09-05T03:31:14.704Z,68718.69
2023-09-05T03:33:42.167Z,68715.84
2023-09-05T03:36:12.630Z,68719.47
2023-09-05T03:38:39.901Z,68716.44
2023-09-05T03:41:07.280Z,68719.25
2023-09-05T03:43:34.602Z,68703.13
2023-09-05T03:46:01.948Z,68698.44
2023-09-05T03:48:29.425Z,68699.00
2023-09-05T03:50:57.088Z,68699.56
2023-09-05T03:53:24.753Z,68703.53
2023-09-05T03:55:52.470Z,68702.41
2023-09-05T03:58:19.690Z,68702.41
2023-09-05T04:00:46.826Z,68699.56
2023-09-05T04:03:14.208Z,68690.47
2023-09-05T04:05:41.664Z,68688.19
2023-09-05T04:08:10.369Z,68689.91
2023-09-05T04:10:38.664Z,68694.63
2023-09-05T04:13:05.858Z,68700.69
2023-09-05T04:15:34.038Z,68713.97
2023-09-05T04:18:01.670Z,68713.78
2023-09-05T04:20:32.433Z,68714.72
2023-09-05T04:22:59.757Z,68707.91
2023-09-05T04:25:27.376Z,68703.53
2023-09-05T04:27:54.694Z,68706.56
2023-09-05T04:30:21.942Z,68704.28
2023-09-05T04:32:50.519Z,68706.94
2023-09-05T04:35:18.962Z,68715.28
2023-09-05T04:37:46.071Z,68708.66
2023-09-05T04:40:13.290Z,68717.00
2023-09-05T04:42:41.818Z,68712.25
2023-09-05T04:45:10.816Z,68706.56
2023-09-05T04:47:39.750Z,68708.66
2023-09-05T04:50:09.924Z,68713.78
2023-09-05T04:52:37.588Z,68707.50
2023-09-05T04:55:05.336Z,68704.84
2023-09-05T04:57:32.588Z,68701.47
2023-09-05T05:00:00.668Z,68702.78
2023-09-05T05:02:29.215Z,68704.13
2023-09-05T05:04:56.583Z,68695.78
2023-09-05T05:07:23.945Z,68706.94
2023-09-05T05:09:51.111Z,68702.78
2023-09-05T05:12:18.772Z,68699.56
2023-09-05T05:14:45.986Z,68703.72
2023-09-05T05:17:14.381Z,68714.34
2023-09-05T05:19:42.049Z,68720.19
2023-09-05T05:22:09.417Z,68724.16
2023-09-05T05:24:36.952Z,68718.88
2023-09-05T05:27:04.377Z,68724.19
2023-09-05T05:29:33.603Z,68715.28
2023-09-05T05:32:02.390Z,68735.75
2023-09-05T05:34:30.968Z,68739.16
2023-09-05T05:36:58.742Z,68743.13
2023-09-05T05:39:27.065Z,68750.56
2023-09-05T05:41:54.827Z,68743.72
2023-09-05T05:44:22.227Z,68744.44
2023-09-05T05:46:49.281Z,68762.47
2023-09-05T05:49:16.431Z,68765.88
2023-09-05T05:51:43.664Z,68788.78
2023-09-05T05:54:11.013Z,68809.31
2023-09-05T05:56:38.377Z,68814.03
2023-09-05T05:59:05.586Z,68823.34
2023-09-05T06:01:34.244Z,68833.19
2023-09-05T06:04:01.512Z,68852.72
2023-09-05T06:06:28.765Z,68849.69
2023-09-05T06:08:56.075Z,68854.41
2023-09-05T06:11:23.244Z,68862.94
2023-09-05T06:13:53.178Z,68881.16
2023-09-05T06:16:22.082Z,68893.47
2023-09-05T06:18:49.340Z,68905.63
2023-09-05T06:21:16.604Z,68919.28
2023-09-05T06:23:43.801Z,68939.03
2023-09-05T06:26:10.973Z,68938.28
2023-09-05T06:28:38.174Z,68954.41
2023-09-05T06:31:06.226Z,68963.13
2023-09-05T06:33:33.457Z,68985.72
2023-09-05T06:36:12.716Z,69006.78
2023-09-05T06:38:40.634Z,69013.22
2023-09-05T06:41:09.035Z,69026.72
2023-09-05T06:43:36.433Z,69040.94
2023-09-05T06:46:07.857Z,69056.56
2023-09-05T06:48:36.467Z,69056.91
2023-09-05T06:51:03.833Z,69037.44
2023-09-05T06:53:32.451Z,69072.50
2023-09-05T06:55:59.684Z,69090.53
2023-09-05T06:58:27.968Z,69097.94
2023-09-05T07:00:56.082Z,69108.78
2023-09-05T07:03:24.664Z,69113.31
2023-09-05T07:06:04.908Z,69128.16
2023-09-05T07:08:34.060Z,69137.84
2023-09-05T07:11:03.640Z,69151.91
2023-09-05T07:13:30.889Z,69159.66
2023-09-05T07:15:58.989Z,69166.91
2023-09-05T07:18:26.788Z,69175.66
2023-09-05T07:20:54.243Z,69180.75
2023-09-05T07:23:21.490Z,69204.38
2023-09-05T07:25:48.729Z,69226.03
2023-09-05T07:28:18.240Z,69235.34
2023-09-05T07:30:45.383Z,69242.34
2023-09-05T07:33:13.639Z,69240.63
2023-09-05T07:35:40.919Z,69245.44
2023-09-05T07:38:08.477Z,69252.63
2023-09-05T07:40:37.421Z,69265.75
2023-09-05T07:43:04.885Z,69291.25
2023-09-05T07:45:33.587Z,69301.53
2023-09-05T07:48:00.881Z,69305.50
2023-09-05T07:50:28.370Z,69299.06
2023-09-05T07:52:55.585Z,69337.47
2023-09-05T07:55:22.787Z,69363.16
2023-09-05T07:57:52.134Z,69362.97
2023-09-05T08:00:20.618Z,69395.28
2023-09-05T08:02:50.117Z,69396.28
2023-09-05T08:05:17.326Z,69421.97
2023-09-05T08:07:44.437Z,69426.53
2023-09-05T08:10:11.734Z,69421.00
2023-09-05T08:12:39.047Z,69411.50
2023-09-05T08:15:06.924Z,69453.38
2023-09-05T08:17:35.136Z,69452.81
2023-09-05T08:20:02.262Z,69452.81
2023-09-05T08:22:32.219Z,69474.53
2023-09-05T08:25:00.258Z,69484.97
2023-09-05T08:27:30.333Z,69479.44
2023-09-05T08:29:58.719Z,69519.66
2023-09-05T08:32:26.161Z,69523.09
2023-09-05T08:34:53.646Z,69521.69
2023-09-05T08:37:22.277Z,69534.91
2023-09-05T08:39:49.714Z,69540.06
2023-09-05T08:42:17.227Z,69545.50
2023-09-05T08:44:46.049Z,69541.13
2023-09-05T08:47:13.279Z,69552.22
2023-09-05T08:49:40.624Z,69563.09
2023-09-05T08:52:10.465Z,69579.25
2023-09-05T08:54:38.088Z,69599.09
2023-09-05T08:57:09.214Z,69601.38
2023-09-05T08:59:36.371Z,69617.53
2023-09-05T09:02:04.233Z,69613.13
2023-09-05T09:04:33.041Z,69640.25
2023-09-05T09:07:00.415Z,69639.09
2023-09-05T09:09:40.104Z,69643.09
2023-09-05T09:12:07.803Z,69621.13
2023-09-05T09:14:35.319Z,69654.16
2023-09-05T09:17:06.003Z,69680.84
2023-09-05T09:19:34.233Z,69680.63
2023-09-05T09:22:04.563Z,69725.66
2023-09-05T09:24:36.477Z,69744.94
2023-09-05T09:27:05.572Z,69752.94
2023-09-05T09:29:33.797Z,69754.84
2023-09-05T09:32:07.915Z,69735.78
2023-09-05T09:34:41.357Z,69736.91
2023-09-05T09:37:09.411Z,69746.50
2023-09-05T09:39:36.559Z,69722.78
2023-09-05T09:42:03.960Z,69726.63
2023-09-05T09:44:33.317Z,69739.22
2023-09-05T09:47:02.586Z,69725.66
2023-09-05T09:49:31.707Z,69726.22
2023-09-05T09:52:04.359Z,69713.19
2023-09-05T09:54:38.770Z,69727.53
2023-09-05T09:57:06.893Z,69782.13
2023-09-05T09:59:37.631Z,69785.00
2023-09-05T10:02:10.653Z,69778.13
2023-09-05T10:04:41.830Z,69788.44
2023-09-05T10:07:12.309Z,69775.44
2023-09-05T10:09:41.915Z,69782.31
2023-09-05T10:12:09.298Z,69804.47
2023-09-05T10:14:39.714Z,69783.84
2023-09-05T10:17:06.918Z,69762.97
2023-09-05T10:19:35.625Z,69796.44
2023-09-05T10:22:03.609Z,69774.13
2023-09-05T10:24:32.736Z,69781.56
2023-09-05T10:27:00.416Z,69781.88
2023-09-05T10:29:34.025Z,69785.00
2023-09-05T10:32:05.239Z,69798.56
2023-09-05T10:34:47.830Z,69757.81
2023-09-05T10:37:16.086Z,69791.28
2023-09-05T10:39:50.520Z,69796.59
2023-09-05T10:42:18.004Z,69813.03
2023-09-05T10:44:48.570Z,69792.44
2023-09-05T10:47:30.200Z,69760.56
2023-09-05T10:50:08.533Z,69766.28
2023-09-05T10:52:36.235Z,69748.53
2023-09-05T10:55:30.641Z,69759.97
2023-09-05T10:57:58.069Z,69781.56
2023-09-05T11:00:28.046Z,69792.44
2023-09-05T11:03:12.860Z,69814.75
2023-09-05T11:05:46.972Z,69834.66
2023-09-05T11:08:22.206Z,69816.19
2023-09-05T11:10:52.262Z,69819.06
2023-09-05T11:13:19.481Z,69841.09
2023-09-05T11:15:46.690Z,69818.47
2023-09-05T11:18:15.705Z,69821.03
2023-09-05T11:20:47.774Z,69834.22
2023-09-05T11:23:24.359Z,69845.25
2023-09-05T11:26:05.035Z,69828.50
2023-09-05T11:28:33.489Z,69809.91
2023-09-05T11:31:04.444Z,69851.66
2023-09-05T11:33:33.223Z,69843.41
2023-09-05T11:36:05.740Z,69851.00
2023-09-05T11:38:46.282Z,69866.13
2023-09-05T11:41:14.017Z,69857.69
2023-09-05T11:43:55.197Z,69832.81
2023-09-05T11:46:23.924Z,69847.97
2023-09-05T11:48:52.108Z,69865.28
2023-09-05T11:51:19.763Z,69828.22
2023-09-05T11:53:47.342Z,69829.94
2023-09-05T11:56:14.943Z,69841.94
2023-09-05T11:58:42.460Z,69882.31
2023-09-05T12:01:10.005Z,69871.84
2023-09-05T12:03:38.030Z,69870.44
2023-09-05T12:06:05.691Z,69836.22
2023-09-05T12:08:36.914Z,69848.13
2023-09-05T12:11:06.804Z,69872.16
2023-09-05T12:13:39.258Z,69859.00
2023-09-05T12:16:11.154Z,69838.53
2023-09-05T12:18:45.342Z,69843.97
2023-09-05T12:21:14.901Z,69849.84
2023-09-05T12:23:42.297Z,69884.59
2023-09-05T12:26:10.457Z,69889.34
2023-09-05T12:28:39.351Z,69876.59
2023-09-05T12:31:08.810Z,69880.19
2023-09-05T12:33:36.148Z,69867.72
2023-09-05T12:36:03.650Z,69886.72
2023-09-05T12:38:31.166Z,69879.63
2023-09-05T12:40:58.564Z,69848.81
2023-09-05T12:43:25.772Z,69858.56
2023-09-05T12:50:36.369Z,69871.13
2023-09-05T12:53:11.056Z,69897.94
2023-09-05T12:55:38.887Z,69892.78
2023-09-05T12:58:10.937Z,69871.13
2023-09-05T13:00:38.348Z,69878.56
2023-09-05T13:03:09.091Z,69905.81
2023-09-05T13:05:38.599Z,69914.41
2023-09-05T13:08:06.062Z,69921.28
2023-09-05T13:10:33.368Z,69937.31
2023-09-05T13:13:04.276Z,69946.63
2023-09-05T13:15:33.686Z,69920.97
2023-09-05T13:18:01.401Z,69964.81
2023-09-05T13:20:31.794Z,69971.25
2023-09-05T13:23:00.541Z,69942.06
2023-09-05T13:25:30.428Z,69925.44
2023-09-05T13:27:59.567Z,69928.28
2023-09-05T13:30:26.693Z,69945.47
2023-09-05T13:32:53.943Z,69954.06
2023-09-05T13:35:21.200Z,69936.31
2023-09-05T13:37:48.435Z,69936.31
2023-09-05T13:40:15.868Z,69931.59
2023-09-05T13:42:43.110Z,69936.72
2023-09-05T13:45:10.639Z,69960.94
2023-09-05T13:47:41.291Z,69969.38
2023-09-05T13:50:10.325Z,69959.22
2023-09-05T13:52:37.480Z,69955.81
2023-09-05T13:55:04.844Z,69908.94
2023-09-05T13:57:32.137Z,69939.03
2023-09-05T13:59:59.431Z,69951.19
2023-09-05T14:02:26.718Z,69925.53
2023-09-05T14:04:55.068Z,69958.50
2023-09-05T14:07:22.249Z,69930.00
2023-09-05T14:09:49.486Z,69940.16
2023-09-05T14:12:19.686Z,69943.03
2023-09-05T14:14:47.074Z,69927.00
2023-09-05T14:17:15.441Z,69918.41
2023-09-05T14:19:42.646Z,69918.41
2023-09-05T14:22:10.012Z,69901.50
2023-09-05T14:24:37.359Z,69894.63
2023-09-05T14:27:05.539Z,69932.56
2023-09-05T14:29:34.057Z,69935.75
2023-09-05T14:32:01.377Z,69899.22
2023-09-05T14:34:28.896Z,69927.72
2023-09-05T14:36:58.369Z,69951.19
2023-09-05T14:39:25.608Z,69968.66
2023-09-05T14:41:53.755Z,69928.97
2023-09-05T14:44:21.176Z,69955.22
2023-09-05T14:46:48.464Z,69958.09
2023-09-05T14:49:16.072Z,69926.59
2023-09-05T14:51:43.572Z,69935.16
2023-09-05T14:54:12.234Z,69936.16
2023-09-05T14:56:40.537Z,69947.06
2023-09-05T14:59:08.305Z,69949.91
2023-09-05T15:01:35.453Z,69921.53
2023-09-05T15:04:02.678Z,69910.06
2023-09-05T15:06:30.008Z,69941.88
2023-09-05T15:08:57.166Z,69946.63
2023-09-05T15:11:24.424Z,69955.06
2023-09-05T15:13:51.556Z,69942.06
2023-09-05T15:16:19.498Z,69942.06
2023-09-05T15:18:47.555Z,69941.63
2023-09-05T15:21:14.833Z,69938.03
2023-09-05T15:23:42.101Z,69947.63
2023-09-05T15:26:09.221Z,69926.00
2023-09-05T15:28:36.940Z,69935.75
2023-09-05T15:31:06.019Z,69937.31
2023-09-05T15:33:34.419Z,69943.44
2023-09-05T15:36:02.351Z,69943.03
2023-09-05T15:38:29.743Z,69923.56
2023-09-05T15:40:57.278Z,69910.97
2023-09-05T15:43:24.453Z,69910.53
2023-09-05T15:45:52.226Z,69914.81
2023-09-05T15:48:19.618Z,69900.06
2023-09-05T15:50:47.049Z,69900.63
2023-09-05T15:53:15.744Z,69896.63
2023-09-05T15:55:43.605Z,69902.34
2023-09-05T15:58:11.152Z,69884.75
2023-09-05T16:00:38.418Z,69884.59
2023-09-05T16:03:06.093Z,69886.34
2023-09-05T16:05:33.346Z,69877.72
2023-09-05T16:08:01.016Z,69870.13
2023-09-05T16:10:28.237Z,69860.56
2023-09-05T16:12:55.506Z,69835.66
2023-09-05T16:15:22.825Z,69831.78
2023-09-05T16:17:50.081Z,69838.81
2023-09-05T16:20:17.392Z,69839.53
2023-09-05T16:22:44.561Z,69828.22
2023-09-05T16:25:11.839Z,69841.50
2023-09-05T16:27:39.173Z,69839.97
2023-09-05T16:30:09.313Z,69820.06
2023-09-05T16:32:37.435Z,69831.78
2023-09-05T16:35:05.147Z,69826.38
2023-09-05T16:37:32.461Z,69809.03
2023-09-05T16:40:00.214Z,69805.75
2023-09-05T16:42:27.761Z,69802.16
2023-09-05T16:44:55.129Z,69794.72
2023-09-05T16:47:22.337Z,69789.41
2023-09-05T16:49:49.529Z,69777.56
2023-09-05T16:52:16.621Z,69762.09
2023-09-05T16:54:45.056Z,69751.22
2023-09-05T16:57:14.803Z,69742.66
2023-09-05T16:59:42.549Z,69751.50
2023-09-05T17:02:09.747Z,69742.66
2023-09-05T17:04:37.862Z,69729.47
2023-09-05T17:07:05.566Z,69726.28
2023-09-05T17:09:32.838Z,69715.59
2023-09-05T17:11:59.931Z,69693.59
2023-09-05T17:14:29.790Z,69687.97
2023-09-05T17:16:57.010Z,69670.56
2023-09-05T17:19:24.140Z,69673.28
2023-09-05T17:21:51.446Z,69660.28
2023-09-05T17:24:18.668Z,69660.28
2023-09-05T17:26:45.789Z,69643.69
2023-09-05T17:29:13.599Z,69637.81
2023-09-05T17:31:41.918Z,69633.22
2023-09-05T17:34:09.309Z,69613.94
2023-09-05T17:36:37.175Z,69609.22
2023-09-05T17:39:04.435Z,69595.09
2023-09-05T17:41:31.702Z,69591.34
2023-09-05T17:43:58.876Z,69575.66
2023-09-05T17:46:26.113Z,69589.78
2023-09-05T17:48:53.444Z,69579.09
2023-09-05T17:51:20.952Z,69567.66
2023-09-05T17:53:48.518Z,69565.22
2023-09-05T17:56:15.630Z,69556.78
2023-09-05T17:58:42.765Z,69545.91
2023-09-05T18:01:10.935Z,69539.06
2023-09-05T18:03:38.376Z,69533.78
2023-09-05T18:06:06.304Z,69533.34
2023-09-05T18:08:33.427Z,69521.38
2023-09-05T18:11:08.480Z,69520.22
2023-09-05T18:13:35.732Z,69521.78
2023-09-05T18:16:05.010Z,69502.69
2023-09-05T18:18:33.302Z,69499.81
2023-09-05T18:21:03.090Z,69497.94
2023-09-05T18:23:32.375Z,69496.22
2023-09-05T18:26:07.446Z,69483.66
2023-09-05T18:28:36.446Z,69481.22
2023-09-05T18:31:07.196Z,69475.91
2023-09-05T18:33:35.999Z,69469.38
2023-09-05T18:36:04.227Z,69464.78
2023-09-05T18:38:32.801Z,69434.91
2023-09-05T18:41:00.346Z,69450.34
2023-09-05T18:43:27.790Z,69437.63
2023-09-05T18:45:55.628Z,69423.09
2023-09-05T18:48:23.414Z,69426.38
2023-09-05T18:50:51.786Z,69406.56
2023-09-05T18:53:20.025Z,69403.53
2023-09-05T18:55:47.206Z,69416.25
2023-09-05T18:58:14.463Z,69417.22
2023-09-05T19:00:41.948Z,69407.13
2023-09-05T19:03:09.352Z,69417.22
2023-09-05T19:05:37.043Z,69424.25
2023-09-05T19:08:05.466Z,69411.13
2023-09-05T19:10:32.783Z,69393.97
2023-09-05T19:13:00.969Z,69380.47
2023-09-05T19:15:31.118Z,69377.44
2023-09-05T19:17:58.707Z,69367.72
2023-09-05T19:20:26.370Z,69364.13
2023-09-05T19:22:53.596Z,69365.84
2023-09-05T19:25:20.754Z,69373.28
2023-09-05T19:27:50.726Z,69366.19
2023-09-05T19:30:20.105Z,69364.06
2023-09-05T19:32:50.962Z,69375.16
2023-09-05T19:35:19.717Z,69366.56
2023-09-05T19:37:46.971Z,69366.19
2023-09-05T19:40:15.092Z,69356.53
2023-09-05T19:42:42.719Z,69331.03
2023-09-05T19:45:10.940Z,69323.44
2023-09-05T19:47:38.243Z,69301.34
2023-09-05T19:50:07.880Z,69288.81
2023-09-05T19:52:37.989Z,69286.69
2023-09-05T19:55:06.519Z,69280.97
2023-09-05T19:57:40.196Z,69283.09
2023-09-05T20:00:13.215Z,69279.84
2023-09-05T20:02:41.218Z,69300.03
2023-09-05T20:05:08.854Z,69292.63
2023-09-05T20:07:36.023Z,69287.28
2023-09-05T20:10:04.465Z,69288.25
2023-09-05T20:12:32.855Z,69274.16
2023-09-05T20:15:02.179Z,69267.28
2023-09-05T20:17:29.690Z,69265.97
2023-09-05T20:19:57.015Z,69258.94
2023-09-05T20:22:25.176Z,69247.53
2023-09-05T20:24:52.481Z,69231.75
2023-09-05T20:27:19.715Z,69230.78
2023-09-05T20:29:47.272Z,69244.63
2023-09-05T20:32:14.467Z,69231.91
2023-09-05T20:34:42.326Z,69238.41
2023-09-05T20:37:09.647Z,69224.50
2023-09-05T20:39:36.851Z,69227.91
2023-09-05T20:42:04.565Z,69223.19
2023-09-05T20:44:32.732Z,69207.56
2023-09-05T20:46:59.868Z,69214.44
2023-09-05T20:49:27.165Z,69208.19
2023-09-05T20:51:54.413Z,69192.00
2023-09-05T20:54:21.626Z,69189.16
2023-09-05T20:56:49.515Z,69174.72
2023-09-05T20:59:16.617Z,69183.84
2023-09-05T21:01:43.643Z,69173.75
2023-09-05T21:04:11.594Z,69160.63
2023-09-05T21:06:38.979Z,69154.19
2023-09-05T21:09:06.979Z,69144.66
2023-09-05T21:11:34.627Z,69148.84
2023-09-05T21:14:02.148Z,69144.09
2023-09-05T21:16:30.120Z,69126.25
2023-09-05T21:19:01.432Z,69130.63
2023-09-05T21:21:28.986Z,69127.41
2023-09-05T21:23:57.400Z,69125.13
2023-09-05T21:26:25.121Z,69118.28
2023-09-05T21:28:52.284Z,69100.22
2023-09-05T21:31:19.937Z,69089.22
2023-09-05T21:33:47.365Z,69091.88
2023-09-05T21:36:14.664Z,69098.16
2023-09-05T21:38:41.828Z,69081.97
2023-09-05T21:41:09.475Z,69079.91
2023-09-05T21:43:36.808Z,69076.28
2023-09-05T21:46:05.102Z,69089.97
2023-09-05T21:48:32.712Z,69062.63
2023-09-05T21:50:59.968Z,69052.19
2023-09-05T21:53:27.113Z,69052.19
2023-09-05T21:55:54.324Z,69052.94
2023-09-05T21:58:21.512Z,69048.00
2023-09-05T22:00:48.696Z,69037.19
2023-09-05T22:03:16.139Z,69027.84
2023-09-05T22:05:43.843Z,69029.19
2023-09-05T22:08:11.128Z,69022.16
2023-09-05T22:10:38.228Z,69027.28
2023-09-05T22:13:05.626Z,69015.31
2023-09-05T22:15:34.156Z,69007.75
2023-09-05T22:18:02.396Z,69008.72
2023-09-05T22:20:41.061Z,68988.97
2023-09-05T22:23:18.290Z,68992.53
2023-09-05T22:25:46.649Z,68997.09
2023-09-05T22:28:15.891Z,69003.03
2023-09-05T22:30:43.520Z,69000.13
2023-09-05T22:33:10.825Z,69007.56
2023-09-05T22:35:38.027Z,68998.25
2023-09-05T22:38:05.223Z,69003.38
2023-09-05T22:40:33.221Z,69026.72
2023-09-05T22:43:05.809Z,69026.72
2023-09-05T22:45:33.851Z,69033.19
2023-09-05T22:48:01.242Z,69023.09
2023-09-05T22:50:28.497Z,69027.69
2023-09-05T22:52:55.739Z,69021.59
2023-09-05T22:55:23.463Z,69025.00
2023-09-05T22:57:51.543Z,69019.88
2023-09-05T23:00:20.139Z,69010.03
2023-09-05T23:02:48.155Z,68975.66
2023-09-05T23:05:15.393Z,68965.63
2023-09-05T23:07:43.351Z,68976.03
2023-09-05T23:10:11.928Z,68967.50
2023-09-05T23:12:39.199Z,68966.75
2023-09-05T23:15:06.961Z,68948.72
2023-09-05T23:17:34.528Z,68949.88
2023-09-05T23:20:02.042Z,68936.97
2023-09-05T23:22:29.178Z,68921.03
2023-09-05T23:24:56.360Z,68919.47
2023-09-05T23:27:23.724Z,68915.69
2023-09-05T23:29:51.087Z,68916.66
2023-09-05T23:32:18.292Z,68897.47
2023-09-05T23:34:45.469Z,68899.00
2023-09-05T23:37:12.629Z,68903.38
2023-09-05T23:39:41.948Z,68899.19
2023-09-05T23:42:09.244Z,68909.81
2023-09-05T23:44:36.462Z,68911.13
2023-09-05T23:47:04.114Z,68909.81
2023-09-05T23:49:31.408Z,68911.72
2023-09-05T23:51:58.733Z,68927.28
2023-09-05T23:54:26.004Z,68906.00
2023-09-05T23:56:53.366Z,68896.34
2023-09-05T23:59:20.470Z,68906.97
